Terminal Aerodrome Forecast
Issued by NWS Cleveland, OH

Home | Current Version | Previous Version | Graphics & Text | Print | Product List | Glossary On
Versions: 1 2 3 4 5 6 7 8 9 10 11 12 13 14 15 16 17 18 19 20 21 22
000
FTUS41 KCLE 170543
TAFTOL
TAF
KTOL 170543Z 1706/1806 10005KT P6SM BKN100
     FM170900 14005KT P6SM VCSH OVC080
     FM171100 16007KT P6SM SCT035 OVC080
      TEMPO 1711/1715 3SM -TSRA OVC035CB
     FM171500 19010KT P6SM SCT030 BKN050
      TEMPO 1715/1719 3SM -TSRA OVC030CB
     FM171900 21010G20KT P6SM VCTS SCT040CB BKN060
     FM172300 23008KT P6SM SCT060 BKN200=

USA.gov is the U.S. government's official web portal to all federal, state and local government web resources and services.